Scout — WDI8661 — position and weather

sailwx.info

Track history (hours):
 
Tides and Currents Weather Stations Pressure Air Temp Water Temp Dewpoint Dewpoint Depression Visibility Wind Speed Wind Dir Waves Ship Positions

Scout

Owner: Harley Marine Services, Inc, Seattle, WA. More information available from US FCC via Universal Licensing System and Coast Guard Vessel Documentation Center.

Last reported at 2017-Sep-22 00:01 UTC. Time now 2017-Sep-23 16:40 UTC.
Position N 29°46' W 095°07'.

Length 23 m; draft 3.3 m.

Type: Towing. MMSI: 367740860.

Date/timePositionNaut miles runAvg speedWind from/ knotsBaromVisibWave heightAir tempDewpointWater temp
2017-Sep-22 00:01N 29°46' W 095°07'1 1.9
2017-Sep-21 23:33N 29°45' W 095°06'0 3.9
2017-Sep-21 23:28N 29°46' W 095°05'2 4.5
2017-Sep-21 23:00N 29°44' W 095°04'2 4.7
2017-Sep-21 22:30N 29°43' W 095°01'1 2.1
2017-Sep-21 22:00N 29°42' W 095°02'0 0.1
2017-Sep-21 21:31N 29°42' W 095°02'1 1.1
2017-Sep-21 21:00N 29°42' W 095°02'0 0.7
2017-Sep-21 20:30N 29°42' W 095°03'0 0.1
2017-Sep-21 19:40N 29°42' W 095°03'0 0.4
2017-Sep-21 19:30N 29°42' W 095°03'0 0.0
2017-Sep-21 18:13N 29°42' W 095°03'0 0.0
2017-Sep-21 15:45N 29°42' W 095°03'0 0.0
2017-Sep-21 15:18N 29°42' W 095°03'0 0.0
2017-Sep-21 14:45N 29°42' W 095°03'0 0.0
2017-Sep-21 14:29N 29°42' W 095°03'0 0.0
2017-Sep-21 05:23N 29°42' W 095°03'0 0.0
2017-Sep-20 20:46N 29°42' W 095°03'0 0.0
2017-Sep-20 19:04N 29°42' W 095°03'0 0.0
2017-Sep-20 18:46N 29°42' W 095°03'0 0.0
2017-Sep-20 17:36N 29°42' W 095°03'0 0.0
2017-Sep-20 17:10N 29°42' W 095°03'0 0.0
2017-Sep-20 16:45N 29°42' W 095°03'0 0.0
2017-Sep-20 16:13N 29°42' W 095°03'0 0.0
2017-Sep-20 15:53N 29°42' W 095°03'0 0.0
2017-Sep-20 15:26N 29°42' W 095°03'0 0.0
2017-Sep-20 14:59N 29°42' W 095°03'0 0.0
2017-Sep-20 08:43N 29°42' W 095°03'0 0.0
2017-Sep-20 08:05N 29°42' W 095°03'0 0.5
2017-Sep-20 07:54N 29°42' W 095°03'0 0.4
2017-Sep-20 07:30N 29°43' W 095°03'0 0.0
2017-Sep-19 23:46N 29°42' W 095°03'0 0.0
2017-Sep-19 22:41N 29°42' W 095°03'0 0.0
2017-Sep-19 22:29N 29°42' W 095°03'0 0.0
2017-Sep-19 21:56N 29°42' W 095°03'0 0.0
2017-Sep-19 21:12N 29°42' W 095°03'0 0.0
2017-Sep-19 18:20N 29°42' W 095°03'0 0.0
2017-Sep-19 11:01N 29°42' W 095°03'0 0.0
2017-Sep-19 10:54N 29°42' W 095°03'0 0.0
2017-Sep-19 02:20N 29°42' W 095°03'0 0.0
2017-Sep-18 07:53N 29°42' W 095°03'0 0.0
2017-Sep-18 07:17N 29°42' W 095°03'0 0.0
2017-Sep-18 06:46N 29°42' W 095°03'0 0.0
2017-Sep-18 06:27N 29°42' W 095°03'0 0.0
2017-Sep-18 05:52N 29°42' W 095°03'0 0.0
2017-Sep-17 19:24N 29°42' W 095°03'0 0.0
2017-Sep-17 18:54N 29°42' W 095°03'0 0.0
2017-Sep-17 18:22N 29°42' W 095°03'0 0.0
2017-Sep-17 17:05N 29°42' W 095°03'0 0.0
2017-Sep-17 16:38N 29°42' W 095°03'0 0.0
2017-Sep-17 16:30N 29°42' W 095°03'0 0.0
2017-Sep-17 14:30N 29°42' W 095°03'0 0.0
2017-Sep-17 11:36N 29°42' W 095°03'0 0.5
2017-Sep-17 11:26N 29°42' W 095°03'1 1.6
2017-Sep-17 10:49N 29°42' W 095°02'1 1.6
2017-Sep-17 10:30N 29°43' W 095°01'1 2.5
2017-Sep-17 09:59N 29°44' W 095°02'1 3.2
2017-Sep-17 09:30N 29°44' W 095°04'2 3.2
2017-Sep-17 09:00N 29°46' W 095°05'2 3.3
2017-Sep-17 08:28N 29°45' W 095°06'2 3.6
2017-Sep-17 08:00N 29°44' W 095°08'2 3.5
2017-Sep-17 07:30N 29°45' W 095°10'2 0.1
2017-Sep-16 09:27N 29°45' W 095°12'0 0.0
2017-Sep-16 06:20N 29°45' W 095°12'0 0.0
2017-Sep-16 05:29N 29°45' W 095°12'0 0.0
2017-Sep-16 04:37N 29°45' W 095°12'0 0.0
2017-Sep-16 04:28N 29°45' W 095°12'  
2017-Sep-13 21:07N 29°45' W 095°11'1 5.9
2017-Sep-13 20:59N 29°45' W 095°10'3 5.5
2017-Sep-13 20:30N 29°44' W 095°07'3 4.2
2017-Sep-13 19:51N 29°45' W 095°04'2 5.5
2017-Sep-13 19:30N 29°44' W 095°02'2 3.0
2017-Sep-13 19:00N 29°42' W 095°02'1 0.2
2017-Sep-13 15:54N 29°42' W 095°03'0 0.1
2017-Sep-13 15:25N 29°42' W 095°03'0 0.0
2017-Sep-13 14:58N 29°42' W 095°03'0 0.0
2017-Sep-13 00:52N 29°42' W 095°03'0 0.0
2017-Sep-12 21:39N 29°42' W 095°03'0 0.1
2017-Sep-12 21:29N 29°42' W 095°03'0 0.0
2017-Sep-12 15:55N 29°42' W 095°03'0 0.1
2017-Sep-12 15:27N 29°42' W 095°03'0 0.0
2017-Sep-12 14:31N 29°42' W 095°03'0 0.0
2017-Sep-12 13:55N 29°42' W 095°03'0 0.0
2017-Sep-12 13:30N 29°42' W 095°03'0 0.0
2017-Sep-12 12:58N 29°42' W 095°03'0 0.0
2017-Sep-12 12:30N 29°42' W 095°03'0 0.0
2017-Sep-12 11:57N 29°42' W 095°03'0 0.0
2017-Sep-12 11:16N 29°42' W 095°03'0 0.0
2017-Sep-12 10:50N 29°42' W 095°03'0 0.0
2017-Sep-12 08:59N 29°42' W 095°03'0 0.0
2017-Sep-12 08:03N 29°42' W 095°03'0 0.0
2017-Sep-12 08:00N 29°42' W 095°03'0 0.0
2017-Sep-12 07:30N 29°42' W 095°03'0 0.0
2017-Sep-12 06:51N 29°42' W 095°03'0 0.0
2017-Sep-12 06:25N 29°42' W 095°03'0 0.0
2017-Sep-12 05:58N 29°42' W 095°03'0 0.0
2017-Sep-12 05:30N 29°42' W 095°03'0 0.0
2017-Sep-12 05:00N 29°42' W 095°03'0 0.0
2017-Sep-12 04:27N 29°42' W 095°03'  
Track history (hours):
 
Tides and Currents Weather Stations Pressure Air Temp Water Temp Dewpoint Dewpoint Depression Visibility Wind Speed Wind Dir Waves Ship Positions

Scout

Owner: Harley Marine Services, Inc, Seattle, WA. More information available from US FCC via Universal Licensing System and Coast Guard Vessel Documentation Center.

Last reported at 2017-Sep-22 00:01 UTC. Time now 2017-Sep-23 16:40 UTC.
Position N 29°46' W 095°07'.

Length 23 m; draft 3.3 m.

Type: Towing. MMSI: 367740860.

Date/timePositionNaut miles runAvg speedWind from/ knotsBaromVisibWave heightAir tempDewpointWater temp
2017-Sep-22 00:01N 29°46' W 095°07'1 1.9
2017-Sep-21 23:33N 29°45' W 095°06'0 3.9
2017-Sep-21 23:28N 29°46' W 095°05'2 4.5
2017-Sep-21 23:00N 29°44' W 095°04'2 4.7
2017-Sep-21 22:30N 29°43' W 095°01'1 2.1
2017-Sep-21 22:00N 29°42' W 095°02'0 0.1
2017-Sep-21 21:31N 29°42' W 095°02'1 1.1
2017-Sep-21 21:00N 29°42' W 095°02'0 0.7
2017-Sep-21 20:30N 29°42' W 095°03'0 0.1
2017-Sep-21 19:40N 29°42' W 095°03'0 0.4
2017-Sep-21 19:30N 29°42' W 095°03'0 0.0
2017-Sep-21 18:13N 29°42' W 095°03'0 0.0
2017-Sep-21 15:45N 29°42' W 095°03'0 0.0
2017-Sep-21 15:18N 29°42' W 095°03'0 0.0
2017-Sep-21 14:45N 29°42' W 095°03'0 0.0
2017-Sep-21 14:29N 29°42' W 095°03'0 0.0
2017-Sep-21 05:23N 29°42' W 095°03'0 0.0
2017-Sep-20 20:46N 29°42' W 095°03'0 0.0
2017-Sep-20 19:04N 29°42' W 095°03'0 0.0
2017-Sep-20 18:46N 29°42' W 095°03'0 0.0
2017-Sep-20 17:36N 29°42' W 095°03'0 0.0
2017-Sep-20 17:10N 29°42' W 095°03'0 0.0
2017-Sep-20 16:45N 29°42' W 095°03'0 0.0
2017-Sep-20 16:13N 29°42' W 095°03'0 0.0
2017-Sep-20 15:53N 29°42' W 095°03'0 0.0
2017-Sep-20 15:26N 29°42' W 095°03'0 0.0
2017-Sep-20 14:59N 29°42' W 095°03'0 0.0
2017-Sep-20 08:43N 29°42' W 095°03'0 0.0
2017-Sep-20 08:05N 29°42' W 095°03'0 0.5
2017-Sep-20 07:54N 29°42' W 095°03'0 0.4
2017-Sep-20 07:30N 29°43' W 095°03'0 0.0
2017-Sep-19 23:46N 29°42' W 095°03'0 0.0
2017-Sep-19 22:41N 29°42' W 095°03'0 0.0
2017-Sep-19 22:29N 29°42' W 095°03'0 0.0
2017-Sep-19 21:56N 29°42' W 095°03'0 0.0
2017-Sep-19 21:12N 29°42' W 095°03'0 0.0
2017-Sep-19 18:20N 29°42' W 095°03'0 0.0
2017-Sep-19 11:01N 29°42' W 095°03'0 0.0
2017-Sep-19 10:54N 29°42' W 095°03'0 0.0
2017-Sep-19 02:20N 29°42' W 095°03'0 0.0
2017-Sep-18 07:53N 29°42' W 095°03'0 0.0
2017-Sep-18 07:17N 29°42' W 095°03'0 0.0
2017-Sep-18 06:46N 29°42' W 095°03'0 0.0
2017-Sep-18 06:27N 29°42' W 095°03'0 0.0
2017-Sep-18 05:52N 29°42' W 095°03'0 0.0
2017-Sep-17 19:24N 29°42' W 095°03'0 0.0
2017-Sep-17 18:54N 29°42' W 095°03'0 0.0
2017-Sep-17 18:22N 29°42' W 095°03'0 0.0
2017-Sep-17 17:05N 29°42' W 095°03'0 0.0
2017-Sep-17 16:38N 29°42' W 095°03'0 0.0
2017-Sep-17 16:30N 29°42' W 095°03'0 0.0
2017-Sep-17 14:30N 29°42' W 095°03'0 0.0
2017-Sep-17 11:36N 29°42' W 095°03'0 0.5
2017-Sep-17 11:26N 29°42' W 095°03'1 1.6
2017-Sep-17 10:49N 29°42' W 095°02'1 1.6
2017-Sep-17 10:30N 29°43' W 095°01'1 2.5
2017-Sep-17 09:59N 29°44' W 095°02'1 3.2
2017-Sep-17 09:30N 29°44' W 095°04'2 3.2
2017-Sep-17 09:00N 29°46' W 095°05'2 3.3
2017-Sep-17 08:28N 29°45' W 095°06'2 3.6
2017-Sep-17 08:00N 29°44' W 095°08'2 3.5
2017-Sep-17 07:30N 29°45' W 095°10'2 0.1
2017-Sep-16 09:27N 29°45' W 095°12'0 0.0
2017-Sep-16 06:20N 29°45' W 095°12'0 0.0
2017-Sep-16 05:29N 29°45' W 095°12'0 0.0
2017-Sep-16 04:37N 29°45' W 095°12'0 0.0
2017-Sep-16 04:28N 29°45' W 095°12'  
2017-Sep-13 21:07N 29°45' W 095°11'1 5.9
2017-Sep-13 20:59N 29°45' W 095°10'3 5.5
2017-Sep-13 20:30N 29°44' W 095°07'3 4.2
2017-Sep-13 19:51N 29°45' W 095°04'2 5.5
2017-Sep-13 19:30N 29°44' W 095°02'2 3.0
2017-Sep-13 19:00N 29°42' W 095°02'1 0.2
2017-Sep-13 15:54N 29°42' W 095°03'0 0.1
2017-Sep-13 15:25N 29°42' W 095°03'0 0.0
2017-Sep-13 14:58N 29°42' W 095°03'0 0.0
2017-Sep-13 00:52N 29°42' W 095°03'0 0.0
2017-Sep-12 21:39N 29°42' W 095°03'0 0.1
2017-Sep-12 21:29N 29°42' W 095°03'0 0.0
2017-Sep-12 15:55N 29°42' W 095°03'0 0.1
2017-Sep-12 15:27N 29°42' W 095°03'0 0.0
2017-Sep-12 14:31N 29°42' W 095°03'0 0.0
2017-Sep-12 13:55N 29°42' W 095°03'0 0.0
2017-Sep-12 13:30N 29°42' W 095°03'0 0.0
2017-Sep-12 12:58N 29°42' W 095°03'0 0.0
2017-Sep-12 12:30N 29°42' W 095°03'0 0.0
2017-Sep-12 11:57N 29°42' W 095°03'0 0.0
2017-Sep-12 11:16N 29°42' W 095°03'0 0.0
2017-Sep-12 10:50N 29°42' W 095°03'0 0.0
2017-Sep-12 08:59N 29°42' W 095°03'0 0.0
2017-Sep-12 08:03N 29°42' W 095°03'0 0.0
2017-Sep-12 08:00N 29°42' W 095°03'0 0.0
2017-Sep-12 07:30N 29°42' W 095°03'0 0.0
2017-Sep-12 06:51N 29°42' W 095°03'0 0.0
2017-Sep-12 06:25N 29°42' W 095°03'0 0.0
2017-Sep-12 05:58N 29°42' W 095°03'0 0.0
2017-Sep-12 05:30N 29°42' W 095°03'0 0.0
2017-Sep-12 05:00N 29°42' W 095°03'0 0.0
2017-Sep-12 04:27N 29°42' W 095°03'  

Dump ship's entire track history